createdAt,value
2019-03-26T00:00:08.385Z,16.65
2019-03-26T00:02:41.473Z,12.20
2019-03-26T00:05:13.131Z,15.43
2019-03-26T00:07:44.584Z,16.25
2019-03-26T00:10:16.247Z,13.53
2019-03-26T00:13:42.958Z,10.15
2019-03-26T00:16:23.215Z,12.43
2019-03-26T00:18:54.866Z,11.85
2019-03-26T00:21:26.533Z,10.75
2019-03-26T00:23:58.332Z,13.50
2019-03-26T00:26:29.951Z,10.80
2019-03-26T00:29:01.703Z,9.23
2019-03-26T00:31:33.062Z,10.53
2019-03-26T00:34:18.345Z,12.43
2019-03-26T00:36:38.012Z,10.95
2019-03-26T00:39:09.722Z,13.30
2019-03-26T00:41:41.433Z,12.00
2019-03-26T00:44:12.980Z,14.98
2019-03-26T00:46:44.846Z,12.30
2019-03-26T00:49:16.603Z,13.35
2019-03-26T00:51:48.157Z,18.00
2019-03-26T00:54:19.924Z,16.52
2019-03-26T00:56:51.373Z,14.00
2019-03-26T00:59:23.338Z,13.85
2019-03-26T01:01:54.898Z,13.58
2019-03-26T01:04:32.617Z,10.05
2019-03-26T01:06:59.741Z,12.33
2019-03-26T01:09:31.297Z,11.90
2019-03-26T01:12:03.059Z,16.20
2019-03-26T01:14:34.919Z,18.62
2019-03-26T01:17:06.480Z,15.48
2019-03-26T01:19:38.238Z,15.63
2019-03-26T01:22:09.707Z,12.85
2019-03-26T01:24:41.848Z,17.40
2019-03-26T01:27:13.504Z,13.22
2019-03-26T01:29:45.267Z,18.45
2019-03-26T01:32:17.228Z,14.38
2019-03-26T01:34:48.991Z,12.28
2019-03-26T01:37:20.554Z,14.38
2019-03-26T01:39:52.309Z,13.53
2019-03-26T01:42:24.065Z,9.78
2019-03-26T01:44:55.524Z,10.82
2019-03-26T01:47:57.757Z,11.97
2019-03-26T01:50:30.138Z,13.50
2019-03-26T01:53:01.697Z,11.43
2019-03-26T01:55:33.365Z,16.57
2019-03-26T01:58:05.108Z,14.28
2019-03-26T02:00:36.819Z,12.07
2019-03-26T02:03:08.430Z,18.75
2019-03-26T02:05:40.202Z,13.70
2019-03-26T02:08:11.760Z,16.75
2019-03-26T02:10:43.311Z,13.38
2019-03-26T02:13:14.955Z,16.17
2019-03-26T02:15:46.730Z,18.07
2019-03-26T02:18:18.491Z,13.43
2019-03-26T02:20:50.042Z,14.70
2019-03-26T02:23:21.905Z,17.35
2019-03-26T02:25:53.293Z,11.48
2019-03-26T02:28:24.914Z,17.37
2019-03-26T02:30:56.383Z,15.98
2019-03-26T02:33:28.145Z,16.90
2019-03-26T02:35:59.991Z,18.55
2019-03-26T02:38:31.601Z,11.78
2019-03-26T02:41:03.213Z,17.12
2019-03-26T02:43:34.767Z,17.73
2019-03-26T02:46:07.246Z,17.00
2019-03-26T02:48:38.882Z,14.45
2019-03-26T02:51:10.540Z,13.15
2019-03-26T02:53:42.321Z,19.02
2019-03-26T02:56:15.085Z,12.00
2019-03-26T02:58:46.753Z,16.85
2019-03-26T03:01:18.402Z,15.48
2019-03-26T03:03:50.057Z,11.03
2019-03-26T03:06:21.717Z,15.28
2019-03-26T03:08:53.372Z,15.75
2019-03-26T03:11:25.154Z,17.52
2019-03-26T03:13:56.911Z,15.25
2019-03-26T03:16:28.380Z,17.25
2019-03-26T03:19:00.019Z,16.42
2019-03-26T03:21:31.585Z,18.27
2019-03-26T03:24:03.369Z,11.78
2019-03-26T03:26:35.103Z,14.30
2019-03-26T03:29:06.853Z,20.92
2019-03-26T03:31:38.562Z,14.60
2019-03-26T03:34:10.087Z,14.68
2019-03-26T03:36:41.731Z,16.67
2019-03-26T03:39:13.583Z,17.02
2019-03-26T03:41:45.246Z,12.18
2019-03-26T03:44:16.627Z,17.48
2019-03-26T03:46:48.353Z,11.40
2019-03-26T03:49:21.436Z,20.77
2019-03-26T03:51:53.054Z,14.05
2019-03-26T03:54:24.767Z,17.45
2019-03-26T03:56:57.032Z,19.25
2019-03-26T03:59:28.808Z,13.88
2019-03-26T04:02:00.444Z,18.73
2019-03-26T04:04:32.101Z,19.02
2019-03-26T04:07:03.666Z,15.43
2019-03-26T04:09:35.324Z,18.27
2019-03-26T04:12:07.082Z,17.23
2019-03-26T04:14:38.840Z,18.30
2019-03-26T04:17:10.321Z,19.05
2019-03-26T04:19:42.061Z,16.85
2019-03-26T04:22:13.611Z,16.20
2019-03-26T04:24:45.309Z,19.42
2019-03-26T04:27:17.028Z,15.68
2019-03-26T04:29:48.787Z,21.17
2019-03-26T04:32:20.342Z,15.15
2019-03-26T04:34:51.995Z,16.90
2019-03-26T04:37:23.657Z,19.52
2019-03-26T04:39:55.322Z,15.23
2019-03-26T04:42:27.413Z,20.35
2019-03-26T04:44:58.929Z,20.60
2019-03-26T04:47:30.596Z,14.95
2019-03-26T04:50:02.252Z,21.05
2019-03-26T04:52:34.226Z,17.15
2019-03-26T04:55:06.037Z,19.77
2019-03-26T04:57:37.358Z,18.10
2019-03-26T05:00:09.092Z,16.25
2019-03-26T05:02:40.964Z,14.93
2019-03-26T05:05:12.687Z,12.60
2019-03-26T05:07:44.102Z,16.30
2019-03-26T05:10:15.720Z,15.58
2019-03-26T05:12:47.284Z,15.93
2019-03-26T05:15:18.839Z,19.27
2019-03-26T05:17:50.595Z,17.35
2019-03-26T05:20:22.150Z,18.70
2019-03-26T05:22:54.112Z,16.90
2019-03-26T05:25:25.571Z,14.83
2019-03-26T05:27:58.705Z,17.40
2019-03-26T05:30:33.008Z,22.62
2019-03-26T05:33:03.609Z,22.37
2019-03-26T05:35:35.065Z,23.90
2019-03-26T05:38:06.721Z,26.33
2019-03-26T05:40:39.508Z,26.75
2019-03-26T05:43:11.166Z,34.27
2019-03-26T05:46:31.550Z,27.93
2019-03-26T05:49:03.124Z,26.80
2019-03-26T05:51:35.668Z,30.55
2019-03-26T05:54:07.021Z,33.13
2019-03-26T05:56:38.408Z,29.25
2019-03-26T05:59:10.029Z,28.40
2019-03-26T06:01:42.565Z,32.25
2019-03-26T06:04:14.370Z,33.78
2019-03-26T06:06:45.954Z,34.88
2019-03-26T06:09:17.476Z,34.45
2019-03-26T06:11:49.139Z,32.63
2019-03-26T06:14:20.896Z,32.85
2019-03-26T06:16:52.654Z,33.48
2019-03-26T06:19:24.207Z,37.35
2019-03-26T06:21:55.763Z,35.65
2019-03-26T06:24:27.631Z,30.82
2019-03-26T06:26:59.496Z,30.62
2019-03-26T06:29:31.968Z,43.23
2019-03-26T06:32:03.510Z,37.23
2019-03-26T06:34:35.183Z,37.73
2019-03-26T06:37:17.392Z,37.55
2019-03-26T06:39:39.933Z,39.13
2019-03-26T06:42:11.381Z,38.65
2019-03-26T06:44:43.131Z,38.28
2019-03-26T06:47:14.903Z,39.05
2019-03-26T06:49:46.454Z,39.45
2019-03-26T06:52:17.935Z,44.75
2019-03-26T06:54:51.687Z,45.38
2019-03-26T06:57:35.055Z,49.08
2019-03-26T06:59:55.965Z,44.83
2019-03-26T07:02:27.712Z,53.87
2019-03-26T07:04:59.273Z,63.75
2019-03-26T07:07:32.060Z,52.53
2019-03-26T07:10:07.193Z,60.10
2019-03-26T07:12:38.643Z,57.93
2019-03-26T07:15:10.202Z,61.20
2019-03-26T07:17:41.657Z,62.50
2019-03-26T07:20:13.205Z,67.17
2019-03-26T07:22:44.799Z,61.60
2019-03-26T07:25:17.342Z,68.78
2019-03-26T07:27:48.781Z,70.37
2019-03-26T07:30:23.570Z,66.80
2019-03-26T07:32:55.386Z,65.85
2019-03-26T07:35:27.043Z,70.87
2019-03-26T07:37:58.701Z,69.45
2019-03-26T07:40:30.474Z,73.28
2019-03-26T07:43:02.231Z,77.22
2019-03-26T07:45:34.083Z,64.95
2019-03-26T07:48:05.848Z,53.52
2019-03-26T07:50:37.504Z,50.85
2019-03-26T07:53:09.261Z,50.60
2019-03-26T07:55:43.720Z,50.30
2019-03-26T07:58:14.321Z,36.73
2019-03-26T08:00:45.800Z,34.45
2019-03-26T08:03:17.315Z,43.63
2019-03-26T08:05:48.666Z,40.08
2019-03-26T08:08:19.980Z,40.58
2019-03-26T08:10:51.299Z,38.95
2019-03-26T08:13:22.652Z,37.35
2019-03-26T08:15:53.953Z,36.42
2019-03-26T08:18:25.535Z,36.38
2019-03-26T08:20:57.654Z,40.52
2019-03-26T08:23:29.189Z,38.20
2019-03-26T08:26:00.814Z,34.40
2019-03-26T08:28:32.515Z,36.23
2019-03-26T08:31:04.129Z,37.45
2019-03-26T08:33:35.901Z,36.70
2019-03-26T08:36:07.653Z,36.30
2019-03-26T08:38:39.206Z,37.23
2019-03-26T08:41:10.976Z,39.73
2019-03-26T08:43:42.524Z,37.00
2019-03-26T08:46:14.171Z,41.37
2019-03-26T08:48:45.881Z,39.23
2019-03-26T08:51:17.598Z,32.90
2019-03-26T08:53:49.465Z,31.80
2019-03-26T08:56:21.018Z,32.15
2019-03-26T08:58:52.674Z,31.27
2019-03-26T09:01:24.538Z,37.05
2019-03-26T09:06:28.776Z,34.25
2019-03-26T09:09:00.535Z,38.48
2019-03-26T09:11:32.904Z,35.08
2019-03-26T09:14:05.699Z,36.33
2019-03-26T09:16:37.454Z,43.90
2019-03-26T09:19:09.216Z,38.13
2019-03-26T09:21:40.726Z,39.33
2019-03-26T09:24:12.425Z,42.62
2019-03-26T09:26:44.005Z,37.90
2019-03-26T09:29:15.640Z,38.05
2019-03-26T09:31:47.301Z,42.85
2019-03-26T09:34:18.871Z,39.83
2019-03-26T09:36:50.641Z,39.67
2019-03-26T09:39:22.372Z,40.58
2019-03-26T09:41:53.784Z,44.05
2019-03-26T09:44:25.484Z,44.18
2019-03-26T09:46:57.244Z,49.80
2019-03-26T09:49:29.010Z,49.77
2019-03-26T09:52:00.804Z,41.65
2019-03-26T09:54:32.431Z,47.27
2019-03-26T09:57:03.995Z,42.60
2019-03-26T09:59:35.747Z,40.25
2019-03-26T10:02:07.391Z,34.90
2019-03-26T10:04:39.160Z,40.70
2019-03-26T10:07:20.872Z,36.88
2019-03-26T10:09:43.804Z,37.40
2019-03-26T10:12:15.461Z,42.45
2019-03-26T10:14:47.120Z,47.08
2019-03-26T10:17:18.884Z,43.52
2019-03-26T10:19:50.437Z,40.05
2019-03-26T10:22:22.091Z,33.10
2019-03-26T10:24:53.749Z,34.30
2019-03-26T10:27:25.472Z,35.03
2019-03-26T10:29:57.197Z,40.38
2019-03-26T10:32:28.822Z,42.85
2019-03-26T10:35:00.363Z,42.60
2019-03-26T10:37:32.144Z,42.78
2019-03-26T10:40:04.634Z,41.58
2019-03-26T10:42:36.075Z,44.48
2019-03-26T10:45:07.746Z,41.48
2019-03-26T10:47:39.390Z,55.23
2019-03-26T10:50:10.852Z,56.25
2019-03-26T10:52:45.257Z,50.43
2019-03-26T10:55:16.814Z,48.02
2019-03-26T10:57:48.615Z,55.92
2019-03-26T11:00:20.758Z,52.38
2019-03-26T11:02:54.112Z,40.12
2019-03-26T11:05:25.258Z,37.95
2019-03-26T11:07:57.052Z,48.45
2019-03-26T11:10:28.706Z,60.28
2019-03-26T11:13:00.367Z,47.58
2019-03-26T11:15:32.123Z,52.05
2019-03-26T11:18:03.790Z,60.80
2019-03-26T11:20:35.355Z,58.05
2019-03-26T11:23:06.996Z,58.70
2019-03-26T11:25:38.659Z,52.70
2019-03-26T11:28:10.215Z,45.03
2019-03-26T11:30:41.679Z,45.55
2019-03-26T11:33:13.531Z,48.05
2019-03-26T11:35:44.979Z,47.55
2019-03-26T11:38:18.516Z,51.20
2019-03-26T11:40:49.855Z,49.23
2019-03-26T11:43:22.191Z,53.52
2019-03-26T11:45:53.866Z,46.35
2019-03-26T11:48:25.418Z,49.15
2019-03-26T11:50:56.974Z,47.98
2019-03-26T11:53:28.732Z,39.50
2019-03-26T11:56:00.058Z,42.65
2019-03-26T11:58:31.840Z,42.25
2019-03-26T12:01:03.653Z,42.00
2019-03-26T12:03:35.056Z,64.37
2019-03-26T12:06:06.851Z,56.63
2019-03-26T12:08:38.679Z,36.70
2019-03-26T12:11:10.341Z,40.98
2019-03-26T12:13:42.190Z,39.05
2019-03-26T12:16:14.556Z,30.50
2019-03-26T12:18:46.234Z,30.10
2019-03-26T12:21:17.994Z,26.90
2019-03-26T12:23:49.856Z,24.95
2019-03-26T12:26:21.408Z,28.20
2019-03-26T12:28:53.110Z,28.52
2019-03-26T12:31:24.731Z,26.68
2019-03-26T12:33:56.317Z,34.38
2019-03-26T12:36:39.352Z,25.97
2019-03-26T12:39:00.928Z,24.30
2019-03-26T12:41:34.334Z,28.80
2019-03-26T12:44:05.982Z,37.15
2019-03-26T12:46:38.869Z,33.50
2019-03-26T12:49:10.432Z,44.03
2019-03-26T12:51:42.183Z,23.73
2019-03-26T12:54:13.745Z,24.95
2019-03-26T12:56:45.503Z,30.15
2019-03-26T12:59:18.178Z,27.58
2019-03-26T13:01:50.042Z,31.68
2019-03-26T13:04:21.499Z,29.92
2019-03-26T13:06:53.262Z,33.83
2019-03-26T13:09:24.924Z,26.23
2019-03-26T13:11:56.578Z,29.85
2019-03-26T13:14:33.963Z,26.50
2019-03-26T13:17:05.214Z,38.13
2019-03-26T13:19:36.283Z,35.23
2019-03-26T13:22:07.709Z,27.30
2019-03-26T13:24:39.364Z,34.83
2019-03-26T13:27:10.423Z,29.95
2019-03-26T13:29:41.860Z,30.92
2019-03-26T13:32:13.326Z,30.70
2019-03-26T13:34:44.681Z,32.03
2019-03-26T13:37:16.116Z,32.30
2019-03-26T13:39:47.575Z,34.25
2019-03-26T13:42:18.922Z,33.25
2019-03-26T13:44:50.168Z,33.65
2019-03-26T13:47:22.650Z,29.40
2019-03-26T13:49:53.901Z,33.92
2019-03-26T13:52:25.135Z,39.18
2019-03-26T13:54:57.520Z,34.92
2019-03-26T13:57:28.972Z,36.80
2019-03-26T14:00:00.396Z,30.45
2019-03-26T14:02:31.881Z,31.60
2019-03-26T14:05:04.155Z,32.05
2019-03-26T14:07:35.293Z,32.48
2019-03-26T14:10:06.643Z,33.73
2019-03-26T14:12:38.101Z,34.58
2019-03-26T14:15:10.398Z,34.20
2019-03-26T14:17:41.823Z,35.58
2019-03-26T14:20:13.385Z,45.23
2019-03-26T14:22:44.528Z,50.43
2019-03-26T14:25:15.778Z,57.85
2019-03-26T14:27:47.135Z,50.90
2019-03-26T14:30:27.519Z,34.48
2019-03-26T14:32:59.020Z,34.08
2019-03-26T14:35:30.288Z,35.03
2019-03-26T14:38:01.740Z,36.55
2019-03-26T14:40:33.100Z,34.80
2019-03-26T14:43:04.359Z,40.38
2019-03-26T14:45:36.014Z,38.30
2019-03-26T14:48:08.578Z,41.00
2019-03-26T14:50:40.137Z,34.40
2019-03-26T14:53:11.378Z,36.70
2019-03-26T14:55:42.730Z,37.25
2019-03-26T14:58:14.078Z,33.55
2019-03-26T15:00:45.534Z,38.75
2019-03-26T15:03:16.990Z,43.78
2019-03-26T15:05:48.437Z,39.63
2019-03-26T15:08:19.897Z,44.20
2019-03-26T15:10:51.345Z,43.00
2019-03-26T15:13:22.512Z,37.95
2019-03-26T15:15:53.843Z,39.13
2019-03-26T15:18:25.501Z,40.30
2019-03-26T15:20:56.782Z,34.95
2019-03-26T15:23:28.103Z,47.65
2019-03-26T15:25:59.451Z,47.78
2019-03-26T15:28:30.833Z,52.00
2019-03-26T15:31:02.318Z,53.78
2019-03-26T15:33:34.047Z,64.32
2019-03-26T15:36:05.092Z,58.78
2019-03-26T15:38:36.409Z,85.40
2019-03-26T15:41:20.992Z,49.63
2019-03-26T15:43:42.183Z,43.60
2019-03-26T15:46:13.440Z,41.68
2019-03-26T15:48:44.984Z,46.18
2019-03-26T15:51:16.443Z,38.02
2019-03-26T15:53:47.892Z,40.30
2019-03-26T15:56:19.245Z,36.80
2019-03-26T15:58:50.693Z,44.90
2019-03-26T16:01:24.355Z,40.73
2019-03-26T16:03:55.240Z,51.68
2019-03-26T16:06:26.474Z,47.45
2019-03-26T16:08:57.940Z,42.15
2019-03-26T16:11:35.679Z,40.12
2019-03-26T16:14:02.089Z,42.48
2019-03-26T16:16:33.429Z,39.08
2019-03-26T16:19:04.882Z,46.48
2019-03-26T16:21:36.267Z,51.88
2019-03-26T16:24:07.682Z,41.33
2019-03-26T16:26:39.137Z,46.58
2019-03-26T16:29:10.566Z,55.98
2019-03-26T16:31:42.044Z,55.40
2019-03-26T16:34:13.499Z,53.50
2019-03-26T16:36:58.816Z,47.35
2019-03-26T16:39:19.368Z,53.78
2019-03-26T16:41:50.937Z,44.83
2019-03-26T16:44:22.698Z,43.17
2019-03-26T16:46:54.252Z,45.33
2019-03-26T16:49:26.007Z,42.93
2019-03-26T16:51:57.466Z,44.70
2019-03-26T16:54:29.016Z,51.45
2019-03-26T16:57:00.387Z,46.68
2019-03-26T16:59:31.920Z,45.58
2019-03-26T17:02:03.373Z,41.23
2019-03-26T17:04:34.862Z,43.63
2019-03-26T17:07:06.381Z,37.45
2019-03-26T17:09:37.939Z,44.73
2019-03-26T17:12:09.084Z,44.27
2019-03-26T17:14:40.436Z,43.13
2019-03-26T17:17:11.524Z,43.05
2019-03-26T17:19:43.045Z,47.10
2019-03-26T17:22:14.486Z,38.05
2019-03-26T17:24:45.734Z,40.75
2019-03-26T17:27:17.290Z,42.95
2019-03-26T17:29:48.639Z,44.30
2019-03-26T17:32:19.994Z,39.05
2019-03-26T17:34:51.249Z,45.52
2019-03-26T17:37:22.689Z,50.45
2019-03-26T17:39:53.837Z,46.90
2019-03-26T17:42:25.091Z,51.70
2019-03-26T17:44:58.383Z,55.33
2019-03-26T17:47:29.742Z,59.50
2019-03-26T17:50:01.087Z,69.55
2019-03-26T17:52:32.538Z,60.75
2019-03-26T17:55:04.832Z,66.00
2019-03-26T17:57:36.270Z,58.80
2019-03-26T18:00:12.730Z,56.13
2019-03-26T18:02:43.977Z,59.95
2019-03-26T18:05:21.368Z,63.23
2019-03-26T18:07:52.721Z,57.27
2019-03-26T18:10:23.972Z,71.97
2019-03-26T18:12:55.320Z,70.97
2019-03-26T18:15:26.484Z,73.35
2019-03-26T18:17:57.917Z,78.47
2019-03-26T18:20:32.787Z,61.23
2019-03-26T18:23:02.463Z,75.67
2019-03-26T18:25:34.118Z,72.50
2019-03-26T18:28:05.466Z,65.28
2019-03-26T18:30:36.851Z,61.75
2019-03-26T18:33:08.282Z,47.78
2019-03-26T18:35:39.529Z,53.60
2019-03-26T18:38:11.076Z,60.30
2019-03-26T18:40:42.346Z,58.33
2019-03-26T18:43:14.900Z,61.15
2019-03-26T18:45:46.266Z,46.80
2019-03-26T18:48:17.604Z,62.50
2019-03-26T18:50:48.855Z,74.82
2019-03-26T18:53:20.408Z,50.75
2019-03-26T18:55:51.661Z,50.43
2019-03-26T18:58:23.210Z,51.85
2019-03-26T19:00:54.766Z,50.20
2019-03-26T19:03:26.034Z,54.13
2019-03-26T19:05:57.468Z,48.35
2019-03-26T19:08:29.040Z,52.30
2019-03-26T19:11:00.588Z,43.90
2019-03-26T19:13:32.044Z,49.58
2019-03-26T19:16:03.185Z,65.10
2019-03-26T19:18:34.643Z,64.25
2019-03-26T19:21:06.078Z,64.80
2019-03-26T19:23:37.745Z,52.43
2019-03-26T19:26:09.007Z,55.43
2019-03-26T19:28:40.267Z,46.30
2019-03-26T19:31:11.806Z,52.08
2019-03-26T19:33:43.160Z,61.90
2019-03-26T19:36:14.605Z,47.62
2019-03-26T19:38:46.882Z,47.08
2019-03-26T19:41:18.330Z,47.80
2019-03-26T19:43:49.983Z,43.80
2019-03-26T19:46:22.673Z,51.70
2019-03-26T19:48:54.105Z,47.95
2019-03-26T19:51:25.677Z,56.80
2019-03-26T19:53:56.923Z,106.15
2019-03-26T19:56:28.480Z,166.70
2019-03-26T19:58:59.940Z,165.50
2019-03-26T20:01:31.181Z,115.20
2019-03-26T20:04:02.839Z,99.40
2019-03-26T20:06:34.381Z,106.05
2019-03-26T20:09:07.179Z,92.33
2019-03-26T20:11:38.426Z,95.97
2019-03-26T20:14:09.678Z,80.92
2019-03-26T20:16:42.287Z,75.75
2019-03-26T20:19:13.600Z,94.87
2019-03-26T20:21:45.172Z,79.35
2019-03-26T20:24:16.624Z,82.85
2019-03-26T20:26:47.965Z,67.10
2019-03-26T20:29:19.314Z,58.05
2019-03-26T20:31:50.496Z,51.68
2019-03-26T20:34:23.452Z,41.92
2019-03-26T20:36:54.542Z,39.98
2019-03-26T20:39:26.966Z,43.65
2019-03-26T20:41:58.318Z,39.33
2019-03-26T20:44:29.878Z,38.65
2019-03-26T20:47:01.340Z,40.15
2019-03-26T20:49:32.771Z,41.85
2019-03-26T20:52:04.334Z,39.33
2019-03-26T20:54:35.995Z,36.20
2019-03-26T20:57:07.445Z,38.35
2019-03-26T20:59:38.899Z,43.05
2019-03-26T21:02:10.358Z,43.78
2019-03-26T21:04:41.914Z,44.63
2019-03-26T21:07:13.257Z,39.98
2019-03-26T21:09:44.627Z,49.42
2019-03-26T21:12:16.070Z,48.45
2019-03-26T21:14:47.412Z,43.83
2019-03-26T21:17:18.970Z,45.43
2019-03-26T21:19:50.161Z,48.05
2019-03-26T21:22:21.566Z,45.63
2019-03-26T21:24:52.817Z,46.75
2019-03-26T21:27:24.165Z,49.20
2019-03-26T21:29:55.722Z,58.25
2019-03-26T21:32:27.074Z,55.50
2019-03-26T21:34:58.530Z,53.38
2019-03-26T21:37:29.983Z,52.90
2019-03-26T21:40:01.332Z,55.80
2019-03-26T21:42:34.114Z,61.65
2019-03-26T21:45:09.255Z,59.08
2019-03-26T21:47:40.361Z,56.35
2019-03-26T21:50:12.618Z,53.65
2019-03-26T21:52:44.022Z,48.33
2019-03-26T21:55:15.363Z,47.62
2019-03-26T21:57:46.830Z,40.92
2019-03-26T22:00:18.176Z,44.50
2019-03-26T22:02:49.720Z,41.98
2019-03-26T22:05:21.079Z,44.30
2019-03-26T22:07:54.773Z,43.65
2019-03-26T22:10:26.347Z,44.70
2019-03-26T22:12:57.903Z,46.50
2019-03-26T22:15:29.165Z,45.88
2019-03-26T22:18:00.603Z,46.48
2019-03-26T22:20:33.067Z,49.27
2019-03-26T22:23:04.679Z,53.70
2019-03-26T22:25:35.982Z,49.83
2019-03-26T22:28:07.226Z,61.90
2019-03-26T22:30:38.684Z,54.58
2019-03-26T22:33:09.865Z,49.83
2019-03-26T22:35:41.188Z,46.18
2019-03-26T22:38:12.525Z,38.73
2019-03-26T22:40:44.085Z,44.10
2019-03-26T22:43:15.304Z,47.48
2019-03-26T22:45:46.788Z,37.63
2019-03-26T22:48:18.227Z,46.23
2019-03-26T22:50:49.579Z,37.80
2019-03-26T22:53:21.152Z,47.95
2019-03-26T22:55:52.504Z,46.85
2019-03-26T22:58:23.676Z,54.80
2019-03-26T23:00:55.305Z,54.20
2019-03-26T23:03:26.763Z,48.17
2019-03-26T23:05:58.110Z,42.80
2019-03-26T23:08:29.654Z,51.00
2019-03-26T23:11:01.124Z,59.93
2019-03-26T23:13:32.467Z,61.30
2019-03-26T23:16:04.029Z,71.60
2019-03-26T23:18:35.362Z,62.48
2019-03-26T23:21:06.725Z,70.45
2019-03-26T23:23:38.075Z,57.38
2019-03-26T23:26:09.324Z,58.65
2019-03-26T23:28:40.775Z,49.93
2019-03-26T23:31:12.339Z,61.00
2019-03-26T23:33:43.886Z,54.00
2019-03-26T23:36:15.236Z,56.85
2019-03-26T23:38:46.484Z,56.40
2019-03-26T23:41:17.938Z,53.08
2019-03-26T23:43:49.292Z,60.45
2019-03-26T23:46:20.538Z,46.68
2019-03-26T23:48:51.792Z,43.83
2019-03-26T23:51:23.125Z,52.40
2019-03-26T23:53:56.230Z,48.28
2019-03-26T23:56:27.578Z,45.28
2019-03-26T23:58:59.028Z,55.63
